Time;durP1;ratioP1;P1;durP2;ratioP2;P2;SDS_P1;SDS_P2;PMS_P1;PMS_P2;Temp;Humidity;BMP_temperature;BMP_pressure;BME280_temperature;BME280_humidity;BME280_pressure;Samples;Min_cycle;Max_cycle;Signal;HPM_P1;HPM_P2
2021/12/05 00:22:40;;;;;;;;;0.00;0.00;;;;;8.41;71.91;100400.50;5058633;28;45465;-76
2021/12/05 00:25:09;;;;;;;;;0.00;0.00;;;;;8.37;71.07;100399.50;5061650;28;45582;-74
2021/12/05 00:27:47;;;;;;;;;0.00;0.00;;;;;8.37;72.17;100409.91;5058989;28;45534;-73
2021/12/05 00:37:01;;;;;;;;;0.00;0.00;;;;;8.38;71.94;100411.69;5037866;28;45370;-75
2021/12/05 00:55:21;;;;;;;;;0.00;0.00;;;;;8.20;71.86;100380.69;5057942;28;45349;-77
2021/12/05 00:58:28;;;;;;;;;0.00;0.00;;;;;8.19;71.28;100363.28;5056128;28;45396;-74
2021/12/05 01:16:36;;;;;;;;;0.00;0.00;;;;;8.13;72.89;100344.84;5057578;28;45407;-77
2021/12/05 01:19:03;;;;;;;;;0.00;0.00;;;;;8.12;71.89;100330.94;5057502;28;45453;-77
2021/12/05 01:21:29;;;;;;;;;0.00;0.00;;;;;8.14;71.85;100321.50;5057781;28;45456;-69
2021/12/05 01:24:04;;;;;;;;;0.00;0.00;;;;;8.13;71.26;100311.88;5057105;28;46130;-79
2021/12/05 01:31:59;;;;;;;;;0.00;0.00;;;;;8.12;70.93;100268.50;5055607;28;45325;-77
2021/12/05 01:48:00;;;;;;;;;0.00;0.00;;;;;8.09;69.76;100247.56;5056999;28;45472;-78
2021/12/05 01:56:40;;;;;;;;;0.00;0.00;;;;;8.16;69.86;100209.66;5014059;28;45857;-74
2021/12/05 02:12:36;;;;;;;;;0.00;0.00;;;;;8.29;69.73;100209.22;5056998;28;45477;-77
2021/12/05 02:42:36;;;;;;;;;0.00;0.00;;;;;8.30;71.34;100244.84;5057822;28;45585;-78
2021/12/05 02:45:06;;;;;;;;;0.00;0.00;;;;;8.26;71.87;100234.28;5057417;28;45462;-79
2021/12/05 02:47:32;;;;;;;;;0.00;0.00;;;;;8.30;71.56;100231.84;5057894;28;45409;-81
2021/12/05 02:50:01;;;;;;;;;0.00;0.00;;;;;8.29;71.71;100206.63;5057656;28;46251;-81
2021/12/05 02:52:32;;;;;;;;;0.00;0.00;;;;;8.29;71.34;100195.34;5057582;28;45535;-80
2021/12/05 02:55:37;;;;;;;;;0.00;0.00;;;;;8.29;70.49;100177.13;5057554;28;45374;-80
2021/12/05 02:58:15;;;;;;;;;0.00;0.00;;;;;8.25;71.29;100193.47;5058117;28;45362;-81
2021/12/05 03:03:21;;;;;;;;;0.00;0.00;;;;;8.25;70.47;100177.84;5057522;28;45338;-79
2021/12/05 03:05:54;;;;;;;;;0.00;0.00;;;;;8.22;70.05;100178.66;5056437;28;45581;-76
2021/12/05 03:08:20;;;;;;;;;0.00;0.00;;;;;8.21;70.39;100187.28;5057735;28;45311;-79
2021/12/05 03:10:50;;;;;;;;;0.00;0.00;;;;;8.11;70.03;100175.66;5057258;28;45532;-79
2021/12/05 03:13:16;;;;;;;;;0.00;0.00;;;;;8.12;69.68;100159.25;5056804;28;45537;-78
2021/12/05 03:15:42;;;;;;;;;0.00;0.00;;;;;8.22;70.35;100138.75;5057848;28;45401;-74
2021/12/05 03:18:08;;;;;;;;;0.00;0.00;;;;;8.22;70.00;100118.78;5056315;28;45326;-75
2021/12/05 03:20:35;;;;;;;;;0.00;0.00;;;;;8.22;70.49;100134.41;5057207;28;46075;-77
2021/12/05 03:23:00;;;;;;;;;0.00;0.00;;;;;8.10;70.37;100134.88;5057238;28;45319;-78
2021/12/05 03:25:26;;;;;;;;;0.00;0.00;;;;;8.27;71.32;100200.47;5056029;28;45517;-80
2021/12/05 03:27:52;;;;;;;;;0.00;0.00;;;;;8.30;71.50;100203.22;5057414;28;45497;-77
2021/12/05 03:30:21;;;;;;;;;0.00;0.00;;;;;8.32;71.76;100185.03;5056975;28;46245;-80
2021/12/05 03:32:50;;;;;;;;;0.00;0.00;;;;;8.28;71.59;100168.44;5057203;28;45494;-80
2021/12/05 03:35:17;;;;;;;;;0.00;0.00;;;;;8.35;72.04;100183.41;5057753;28;45301;-74
2021/12/05 03:37:42;;;;;;;;;0.00;0.00;;;;;8.30;71.79;100169.38;5057814;28;45495;-82
2021/12/05 03:40:09;;;;;;;;;0.00;0.00;;;;;8.32;71.17;100130.38;5055592;28;46431;-72
2021/12/05 03:42:35;;;;;;;;;0.00;0.00;;;;;8.37;71.42;100134.00;5057114;28;45381;-78
2021/12/05 03:45:03;;;;;;;;;0.00;0.00;;;;;8.34;71.73;100147.81;5055866;28;45471;-80
2021/12/05 03:47:30;;;;;;;;;0.00;0.00;;;;;8.27;71.74;100142.34;5057309;28;45777;-81
2021/12/05 03:49:56;;;;;;;;;0.00;0.00;;;;;8.35;72.25;100136.56;5056827;28;46125;-81
2021/12/05 03:52:22;;;;;;;;;0.00;0.00;;;;;8.30;72.36;100129.47;5056693;28;45339;-79
2021/12/05 03:54:47;;;;;;;;;0.00;0.00;;;;;8.34;72.26;100113.09;5057099;28;45505;-73
2021/12/05 03:57:13;;;;;;;;;0.00;0.00;;;;;8.33;72.11;100093.97;5056270;28;45583;-72
2021/12/05 03:59:39;;;;;;;;;0.00;0.00;;;;;8.23;72.43;100070.22;5056848;28;45362;-73
2021/12/05 04:02:07;;;;;;;;;0.00;0.00;;;;;8.23;72.30;100097.13;5056898;28;45275;-73
2021/12/05 04:04:33;;;;;;;;;0.00;0.00;;;;;8.18;72.99;100145.56;5055791;28;45830;-73
2021/12/05 04:06:59;;;;;;;;;0.00;0.00;;;;;8.16;72.91;100179.31;5072469;28;45643;-73
2021/12/05 04:09:25;;;;;;;;;0.00;0.00;;;;;8.13;73.49;100176.59;5056621;28;46053;-80
2021/12/05 04:12:01;;;;;;;;;0.00;0.00;;;;;7.92;71.78;100161.16;5056502;28;45433;-73
2021/12/05 04:14:35;;;;;;;;;0.00;0.00;;;;;7.82;74.32;100182.50;5057030;28;45319;-74
2021/12/05 04:17:03;;;;;;;;;1.00;0.00;;;;;7.64;78.13;100171.41;5055513;28;45444;-74
2021/12/05 04:19:29;;;;;;;;;0.00;0.00;;;;;7.36;77.72;100176.50;5056663;28;46220;-74
2021/12/05 04:21:55;;;;;;;;;0.00;0.00;;;;;7.29;79.42;100156.31;5056663;28;45264;-73
2021/12/05 04:24:22;;;;;;;;;0.00;0.00;;;;;7.29;79.45;100150.25;5056615;28;45344;-75
2021/12/05 04:26:48;;;;;;;;;0.00;0.00;;;;;7.28;78.51;100149.38;5060023;28;45636;-73
2021/12/05 04:29:14;;;;;;;;;0.00;0.00;;;;;7.31;78.51;100164.19;5060353;28;46253;-74
2021/12/05 04:31:41;;;;;;;;;1.00;0.00;;;;;7.32;78.51;100165.94;5059889;28;45372;-74
2021/12/05 04:34:08;;;;;;;;;0.00;0.00;;;;;7.35;77.95;100155.66;5060020;28;45613;-78
2021/12/05 04:36:34;;;;;;;;;0.00;0.00;;;;;7.34;78.40;100149.59;5060271;28;45537;-74
2021/12/05 04:38:59;;;;;;;;;0.00;0.00;;;;;7.30;78.16;100139.91;5059616;28;45501;-75
2021/12/05 04:41:25;;;;;;;;;0.00;0.00;;;;;7.16;78.36;100121.22;5059952;28;45235;-73
2021/12/05 04:43:52;;;;;;;;;0.25;0.00;;;;;7.36;78.91;100149.63;5059990;28;45421;-74
2021/12/05 04:46:23;;;;;;;;;0.00;0.00;;;;;7.32;78.32;100108.75;5060441;28;45275;-74
2021/12/05 04:48:51;;;;;;;;;0.00;0.00;;;;;7.45;77.73;100123.97;5058583;28;46311;-73
2021/12/05 04:51:21;;;;;;;;;0.00;0.00;;;;;7.41;77.96;100121.22;5059736;28;46134;-72
2021/12/05 04:53:46;;;;;;;;;0.75;0.00;;;;;7.48;75.79;100128.38;5058507;28;45611;-74
2021/12/05 04:56:13;;;;;;;;;0.00;0.00;;;;;7.51;74.94;100125.91;5059826;28;45330;-73
2021/12/05 04:58:39;;;;;;;;;0.00;0.00;;;;;7.51;76.02;100110.31;5059485;28;46394;-72
2021/12/05 05:01:05;;;;;;;;;0.00;0.00;;;;;7.55;75.62;100101.78;5058132;28;45432;-75
2021/12/05 05:03:33;;;;;;;;;1.00;0.00;;;;;7.56;75.60;100104.47;5058174;28;45601;-72
2021/12/05 05:06:20;;;;;;;;;0.00;0.00;;;;;7.61;74.95;100085.53;5058416;28;45458;-74
2021/12/05 05:08:49;;;;;;;;;0.00;0.00;;;;;7.49;74.24;100068.66;5059097;28;45334;-74
2021/12/05 05:11:17;;;;;;;;;0.00;0.00;;;;;7.58;74.75;100091.53;5059362;28;45438;-72
2021/12/05 05:13:46;;;;;;;;;1.00;0.00;;;;;7.54;75.15;100110.41;5059475;28;45335;-79
2021/12/05 05:16:14;;;;;;;;;0.00;0.00;;;;;7.53;74.29;100124.25;5059983;28;45557;-80
2021/12/05 05:19:02;;;;;;;;;0.00;0.00;;;;;7.47;74.95;100126.63;5057669;28;47790;-76
2021/12/05 05:44:41;;;;;;;;;4.00;4.00;;;;;7.89;72.82;100129.84;5059010;28;45418;-74
2021/12/05 05:52:17;;;;;;;;;0.00;0.00;;;;;8.11;72.56;100113.22;5058466;28;45485;-74
2021/12/05 05:54:46;;;;;;;;;1.00;0.00;;;;;8.15;72.23;100117.69;5058774;28;45428;-75
2021/12/05 06:00:28;;;;;;;;;0.00;0.00;;;;;8.24;71.92;100088.50;4996012;28;45416;-81
2021/12/05 06:05:39;;;;;;;;;0.00;0.00;;;;;8.26;72.04;100057.34;5058591;28;45586;-80
2021/12/05 06:08:04;;;;;;;;;0.25;0.00;;;;;8.35;72.27;100070.63;5074299;28;45528;-80
2021/12/05 06:10:32;;;;;;;;;0.00;0.00;;;;;8.44;72.61;100065.75;5058288;28;45918;-81
2021/12/05 06:12:58;;;;;;;;;0.75;0.00;;;;;8.47;72.24;100058.00;5058207;28;45311;-79
2021/12/05 06:15:26;;;;;;;;;0.00;0.00;;;;;8.47;71.92;100065.81;5057561;28;45388;-81
2021/12/05 06:17:55;;;;;;;;;0.00;0.00;;;;;8.45;71.68;100062.28;5058837;28;45307;-80
2021/12/05 06:20:25;;;;;;;;;0.00;0.00;;;;;8.50;71.00;100057.25;5058631;28;45493;-80
2021/12/05 06:22:51;;;;;;;;;2.00;0.00;;;;;8.52;71.15;100053.84;5058348;28;45257;-81
2021/12/05 06:25:20;;;;;;;;;1.33;0.00;;;;;8.63;69.73;100053.28;5057932;28;45415;-80
2021/12/05 06:27:48;;;;;;;;;0.67;0.00;;;;;8.69;69.51;100049.13;5058388;28;45419;-80
2021/12/05 06:30:22;;;;;;;;;0.00;0.00;;;;;8.73;70.02;100052.69;5058090;28;46084;-81
2021/12/05 06:40:59;;;;;;;;;13.50;12.75;;;;;8.89;70.10;100080.06;5057787;28;45245;-78
2021/12/05 06:46:29;;;;;;;;;3.00;2.00;;;;;8.80;70.47;100040.75;5049008;28;45519;-75
2021/12/05 06:48:55;;;;;;;;;2.50;1.00;;;;;8.83;70.24;100033.03;5057617;28;45260;-79
2021/12/05 06:51:26;;;;;;;;;1.00;0.00;;;;;8.86;69.80;100047.00;5056264;28;46389;-79
2021/12/05 06:53:53;;;;;;;;;1.00;0.75;;;;;8.90;69.70;100085.34;5058111;28;45548;-80
2021/12/05 06:56:19;;;;;;;;;3.25;2.50;;;;;8.77;69.62;100067.56;5056493;28;45217;-75
2021/12/05 06:58:45;;;;;;;;;2.00;0.67;;;;;8.71;71.97;100119.47;5057797;28;45235;-79
2021/12/05 07:01:13;;;;;;;;;1.00;0.00;;;;;8.46;67.99;100087.50;5057499;28;46075;-80
2021/12/05 07:03:42;;;;;;;;;0.00;0.00;;;;;8.27;68.81;100106.81;5056922;28;45469;-80
2021/12/05 07:06:12;;;;;;;;;0.00;0.00;;;;;8.02;69.49;100094.72;5057649;28;45260;-80
2021/12/05 07:08:42;;;;;;;;;0.00;0.00;;;;;8.13;70.03;100119.38;5057779;28;45311;-81
2021/12/05 07:14:54;;;;;;;;;0.67;0.00;;;;;7.93;70.43;100155.13;5044842;28;45603;-83
2021/12/05 07:17:07;;;;;;;;;1.67;0.00;;;;;7.81;72.85;100216.22;5054473;28;45607;-83
2021/12/05 07:19:58;;;;;;;;;1.75;1.25;;;;;7.58;72.25;100195.50;5056905;28;45260;-85
2021/12/05 07:23:29;;;;;;;;;0.50;0.50;;;;;7.34;72.35;100190.25;5057627;28;45505;-85
2021/12/05 07:43:56;;;;;;;;;3.25;2.00;;;;;7.35;74.15;100231.03;4997006;28;45405;-74
2021/12/05 07:46:22;;;;;;;;;6.25;4.50;;;;;7.26;74.45;100235.84;4959644;28;45534;-73
2021/12/05 07:48:48;;;;;;;;;7.75;6.00;;;;;7.28;74.12;100248.09;4921428;28;45451;-73
2021/12/05 07:53:58;;;;;;;;;6.00;3.50;;;;;7.36;73.46;100237.97;4995623;28;45455;-73
2021/12/05 07:56:47;;;;;;;;;2.50;2.50;;;;;7.54;73.42;100258.56;4996180;28;45502;-76
2021/12/05 08:16:13;;;;;;;;;0.00;0.00;;;;;8.00;71.01;100215.16;4990954;28;45987;-75
2021/12/05 08:18:38;;;;;;;;;1.00;1.00;;;;;7.81;71.10;100192.81;4990111;28;45596;-78
2021/12/05 08:21:07;;;;;;;;;1.00;0.00;;;;;8.00;71.44;100230.75;4989575;28;45470;-76
2021/12/05 08:23:33;;;;;;;;;1.00;0.00;;;;;7.83;71.21;100209.38;4989728;28;45555;-75
2021/12/05 08:26:07;;;;;;;;;0.67;0.00;;;;;7.95;71.07;100222.81;4987416;28;45558;-76
2021/12/05 08:28:56;;;;;;;;;0.00;0.00;;;;;7.91;70.30;100218.31;4987943;28;45490;-77
2021/12/05 08:40:01;;;;;;;;;1.00;0.00;;;;;7.78;70.64;100276.81;4990369;28;45421;-76
2021/12/05 10:09:32;;;;;;;;;0.00;0.00;;;;;9.09;60.57;100320.38;4997778;28;45540;-77
2021/12/05 10:15:12;;;;;;;;;1.75;0.75;;;;;8.37;64.77;100376.06;4980965;28;45527;-77
2021/12/05 10:26:23;;;;;;;;;0.75;0.50;;;;;8.84;65.05;100389.91;4990982;28;45416;-79
2021/12/05 10:26:55;;;;;;;;;0.25;0.00;;;;;8.97;65.04;100404.22;4988518;28;46087;-78
2021/12/05 10:35:52;;;;;;;;;1.00;1.00;;;;;9.81;64.04;100413.03;4993567;28;45427;-78
2021/12/05 10:38:24;;;;;;;;;0.50;0.25;;;;;9.98;63.29;100374.41;4994199;28;45532;-76
2021/12/05 10:41:03;;;;;;;;;1.67;0.00;;;;;10.34;63.45;100411.16;4988505;28;45218;-77
2021/12/05 10:43:31;;;;;;;;;4.00;3.00;;;;;10.34;63.00;100406.84;4988329;28;45345;-76
2021/12/05 10:46:07;;;;;;;;;2.33;1.00;;;;;10.01;62.77;100362.34;4983029;28;45487;-80
2021/12/05 10:48:39;;;;;;;;;2.50;2.00;;;;;10.23;62.69;100397.78;4977133;28;45384;-76
2021/12/05 10:51:09;;;;;;;;;1.00;0.00;;;;;10.38;62.17;100418.22;4979762;28;45488;-78
2021/12/05 10:53:44;;;;;;;;;0.67;0.00;;;;;10.69;61.68;100417.38;4962645;28;45782;-77
2021/12/05 10:56:16;;;;;;;;;0.67;0.00;;;;;11.45;60.21;100422.81;4989349;28;45580;-76
2021/12/05 10:58:50;;;;;;;;;1.00;0.00;;;;;12.44;54.11;100391.88;4959103;28;47814;-76
2021/12/05 11:01:37;;;;;;;;;0.67;0.00;;;;;12.18;55.75;100383.50;4959801;28;45484;-76
2021/12/05 11:04:16;;;;;;;;;1.00;1.00;;;;;12.10;55.46;100385.94;4977541;28;45472;-76
2021/12/05 11:06:54;;;;;;;;;0.00;0.00;;;;;12.17;53.77;100400.03;4978091;28;45353;-76
2021/12/05 11:09:36;;;;;;;;;0.00;0.00;;;;;12.05;55.62;100395.41;4994189;28;46420;-76
2021/12/05 11:12:11;;;;;;;;;0.00;0.00;;;;;11.84;56.28;100389.72;4979279;28;45508;-76
2021/12/05 11:14:44;;;;;;;;;3.67;3.00;;;;;11.81;56.98;100402.72;4997531;28;45419;-77
2021/12/05 11:17:13;;;;;;;;;0.00;0.00;;;;;11.54;54.93;100390.78;4979773;28;45569;-81
2021/12/05 11:19:52;;;;;;;;;3.00;1.33;;;;;11.29;56.85;100365.75;4978938;28;46676;-79
2021/12/05 11:22:25;;;;;;;;;3.00;2.67;;;;;10.89;57.85;100325.56;4996888;28;45610;-75
2021/12/05 11:24:57;;;;;;;;;3.00;2.00;;;;;10.92;58.39;100386.66;4994745;28;45507;-81
2021/12/05 11:27:34;;;;;;;;;7.25;5.50;;;;;10.61;59.40;100363.16;4993931;28;45666;-74
2021/12/05 11:30:13;;;;;;;;;1.33;1.00;;;;;10.53;59.14;100386.47;4977005;28;45565;-76
2021/12/05 11:32:39;;;;;;;;;5.75;4.00;;;;;10.41;59.16;100383.50;4976035;28;45456;-82
2021/12/05 11:35:34;;;;;;;;;10.00;7.25;;;;;10.34;59.95;100375.50;4975939;28;45373;-76
2021/12/05 11:38:07;;;;;;;;;10.25;6.25;;;;;10.33;60.69;100357.19;4959253;28;45408;-76
2021/12/05 11:40:46;;;;;;;;;4.75;4.25;;;;;10.26;59.13;100361.28;4976201;28;46382;-77
2021/12/05 11:43:19;;;;;;;;;3.00;2.00;;;;;10.40;60.78;100385.22;4958831;28;45341;-75
2021/12/05 11:46:08;;;;;;;;;4.00;4.00;;;;;10.54;60.16;100383.00;4976533;28;45882;-75
2021/12/05 11:48:42;;;;;;;;;2.75;2.00;;;;;10.64;59.81;100365.84;4959178;28;45396;-80
2021/12/05 11:51:24;;;;;;;;;1.33;1.00;;;;;10.68;59.74;100358.16;4977068;28;46342;-78
2021/12/05 11:53:55;;;;;;;;;1.00;0.33;;;;;10.84;59.27;100366.38;4976960;28;45441;-79
2021/12/05 11:56:30;;;;;;;;;1.00;0.67;;;;;10.91;58.73;100374.41;4976457;28;45719;-79
2021/12/05 11:59:12;;;;;;;;;1.00;0.67;;;;;10.98;58.10;100362.38;4977143;28;45349;-79
2021/12/05 12:01:50;;;;;;;;;0.33;0.33;;;;;10.77;56.19;100312.19;4959280;28;46365;-80
2021/12/05 12:04:19;;;;;;;;;2.00;1.00;;;;;10.89;55.52;100336.91;4977417;28;45385;-79
2021/12/05 12:07:04;;;;;;;;;0.67;0.00;;;;;11.17;55.80;100375.94;4977392;28;45391;-79
2021/12/05 12:09:29;;;;;;;;;2.00;0.67;;;;;10.98;53.69;100320.53;4977236;28;45471;-81
2021/12/05 12:11:55;;;;;;;;;1.00;0.00;;;;;11.25;54.56;100358.69;4976761;28;45983;-79
2021/12/05 12:14:21;;;;;;;;;0.67;0.00;;;;;11.35;54.79;100343.25;4976941;28;45306;-79
2021/12/05 12:16:48;;;;;;;;;2.00;2.00;;;;;11.05;51.61;100288.50;4977427;28;45468;-79
2021/12/05 12:19:20;;;;;;;;;1.00;0.00;;;;;11.69;51.32;100377.16;4977504;28;45214;-79
2021/12/05 12:21:48;;;;;;;;;3.67;3.00;;;;;11.46;52.43;100353.97;4977112;28;46437;-79
2021/12/05 12:24:15;;;;;;;;;5.33;4.00;;;;;10.86;53.64;100292.41;4976719;28;45522;-79
2021/12/05 12:26:42;;;;;;;;;4.00;3.00;;;;;11.04;54.00;100349.47;4977015;28;45301;-79
2021/12/05 12:29:11;;;;;;;;;2.00;2.00;;;;;11.40;53.73;100384.31;4976924;28;45436;-79
2021/12/05 12:31:41;;;;;;;;;0.00;0.00;;;;;11.37;52.10;100379.03;4976617;28;45447;-79
2021/12/05 12:34:11;;;;;;;;;2.00;1.33;;;;;11.46;52.87;100367.06;4976529;28;45431;-79
2021/12/05 12:36:47;;;;;;;;;1.00;1.00;;;;;11.43;53.32;100345.16;4976880;28;45500;-79
2021/12/05 12:39:16;;;;;;;;;2.67;1.00;;;;;11.29;52.69;100378.84;4977218;28;45491;-84
2021/12/05 12:41:43;;;;;;;;;1.67;1.00;;;;;10.67;53.94;100339.81;4976464;28;45571;-83
2021/12/05 12:44:08;;;;;;;;;1.00;0.00;;;;;10.18;56.38;100312.34;4976499;28;45508;-78
2021/12/05 12:46:42;;;;;;;;;1.33;1.00;;;;;10.42;58.05;100395.72;4977819;28;45464;-79
2021/12/05 12:49:14;;;;;;;;;2.00;0.00;;;;;10.29;58.20;100381.41;4980502;28;45416;-82
2021/12/05 12:51:56;;;;;;;;;1.25;0.25;;;;;10.16;59.35;100348.81;4979691;28;46235;-79
2021/12/05 12:54:31;;;;;;;;;1.00;1.00;;;;;10.53;59.26;100376.00;4979664;28;45325;-79
2021/12/05 12:57:06;;;;;;;;;2.00;2.00;;;;;10.68;59.04;100380.75;4979982;28;45479;-79
2021/12/05 12:59:35;;;;;;;;;1.33;1.00;;;;;10.66;58.30;100379.81;4980131;28;45372;-78
2021/12/05 13:10:29;;;;;;;;;3.00;2.00;;;;;10.75;59.59;100378.34;4979774;28;45246;-79
2021/12/05 13:13:20;;;;;;;;;0.00;0.00;;;;;10.80;58.25;100339.25;4979112;28;46376;-79
2021/12/05 13:15:57;;;;;;;;;0.67;0.67;;;;;10.92;57.50;100370.97;4970204;28;45281;-79
2021/12/05 13:18:32;;;;;;;;;0.00;0.00;;;;;11.10;57.85;100380.09;4979466;28;45391;-79
2021/12/05 13:21:10;;;;;;;;;2.00;1.00;;;;;10.91;57.65;100369.19;4979619;28;45285;-79
2021/12/05 13:23:50;;;;;;;;;3.67;2.00;;;;;10.91;57.75;100379.63;4979395;28;46302;-79
2021/12/05 13:26:34;;;;;;;;;0.00;0.00;;;;;11.01;56.60;100367.69;4979323;28;45370;-79
2021/12/05 13:29:19;;;;;;;;;3.00;3.00;;;;;11.08;57.73;100361.78;4979262;28;45400;-79
2021/12/05 13:32:06;;;;;;;;;4.33;2.00;;;;;10.80;57.30;100317.47;4979567;28;45493;-79
2021/12/05 13:34:46;;;;;;;;;3.00;1.00;;;;;10.91;56.23;100340.44;4979265;28;46192;-79
2021/12/05 13:37:15;;;;;;;;;2.67;2.00;;;;;10.81;57.20;100355.84;4979180;28;45329;-79
2021/12/05 13:39:48;;;;;;;;;4.00;2.00;;;;;10.65;57.97;100378.06;4979450;28;45467;-79
2021/12/05 13:42:23;;;;;;;;;9.50;7.25;;;;;10.55;58.89;100390.00;4979601;28;45480;-79
2021/12/05 13:45:02;;;;;;;;;4.00;3.25;;;;;10.43;59.46;100390.53;4979390;28;46547;-83
2021/12/05 13:47:38;;;;;;;;;6.75;5.00;;;;;10.31;59.12;100392.81;4979055;28;45415;-79
2021/12/05 13:50:42;;;;;;;;;8.50;5.00;;;;;10.25;58.61;100393.47;4979046;28;45327;-79
2021/12/05 13:53:07;;;;;;;;;6.00;3.00;;;;;10.12;59.54;100394.84;4967135;28;45484;-78
2021/12/05 13:56:02;;;;;;;;;4.25;4.25;;;;;10.28;59.44;100395.28;4978903;28;46141;-79
2021/12/05 13:58:39;;;;;;;;;1.33;1.33;;;;;10.27;57.47;100380.47;4978812;28;45419;-79
2021/12/05 14:01:33;;;;;;;;;5.50;5.50;;;;;10.11;58.10;100379.16;4979060;28;45249;-79
2021/12/05 14:04:18;;;;;;;;;2.25;2.00;;;;;10.09;56.08;100386.94;4979055;28;45448;-79
2021/12/05 14:07:00;;;;;;;;;4.75;3.50;;;;;10.09;55.56;100376.50;4979185;28;45529;-79
2021/12/05 14:09:31;;;;;;;;;1.00;1.00;;;;;10.12;54.59;100375.69;4978934;28;45354;-79
2021/12/05 14:12:06;;;;;;;;;5.00;4.00;;;;;10.09;55.67;100389.53;4978870;28;45286;-79
2021/12/05 14:14:43;;;;;;;;;4.00;2.00;;;;;10.05;55.01;100395.50;4978878;28;45403;-79
2021/12/05 14:17:19;;;;;;;;;7.00;6.25;;;;;9.94;55.78;100355.16;4978513;28;45282;-79
2021/12/05 14:19:49;;;;;;;;;3.50;3.00;;;;;10.32;55.83;100408.50;4978619;28;45409;-79
2021/12/05 14:22:16;;;;;;;;;1.33;1.00;;;;;10.12;56.09;100368.72;4961110;28;45401;-79
2021/12/05 14:24:46;;;;;;;;;2.00;1.00;;;;;10.15;55.37;100374.06;4978875;28;45209;-79
2021/12/05 14:27:16;;;;;;;;;2.00;1.00;;;;;10.42;55.92;100406.16;4978347;28;46271;-79
2021/12/05 14:29:43;;;;;;;;;3.00;0.00;;;;;10.46;56.39;100385.38;4960710;28;45501;-79
2021/12/05 14:32:24;;;;;;;;;2.00;1.00;;;;;10.69;55.21;100400.81;4978241;28;45535;-79
2021/12/05 14:34:54;;;;;;;;;4.00;1.00;;;;;10.89;55.48;100402.22;4978691;28;45494;-79
2021/12/05 14:37:22;;;;;;;;;2.00;1.00;;;;;10.73;54.77;100382.66;4977159;28;45515;-79
2021/12/05 14:39:52;;;;;;;;;2.67;2.00;;;;;10.62;56.14;100373.63;4977348;28;45241;-79
2021/12/05 14:42:23;;;;;;;;;1.00;1.00;;;;;10.44;56.12;100360.09;4978112;28;45326;-79
2021/12/05 14:44:52;;;;;;;;;1.00;1.00;;;;;10.55;56.54;100390.00;4960565;28;45622;-79
2021/12/05 14:47:24;;;;;;;;;1.00;1.00;;;;;10.59;56.70;100404.03;4978019;28;46315;-79
2021/12/05 14:49:53;;;;;;;;;1.00;0.33;;;;;10.53;56.92;100407.34;4977584;28;45439;-80
2021/12/05 14:52:24;;;;;;;;;2.00;0.00;;;;;10.26;57.06;100376.09;4960266;28;45377;-79
2021/12/05 14:54:50;;;;;;;;;1.67;0.00;;;;;9.99;56.76;100339.63;4978425;28;45575;-80
2021/12/05 14:57:20;;;;;;;;;0.00;0.00;;;;;10.45;55.13;100420.19;4977786;28;46501;-79
2021/12/05 14:59:48;;;;;;;;;0.67;0.00;;;;;10.32;56.49;100410.22;4977798;28;45459;-79
2021/12/05 15:02:15;;;;;;;;;1.00;0.00;;;;;10.19;57.71;100405.47;4977810;28;45510;-80
2021/12/05 15:04:44;;;;;;;;;0.00;0.00;;;;;10.18;58.25;100427.19;4977834;28;45389;-80
2021/12/05 15:07:11;;;;;;;;;1.50;1.50;;;;;9.88;58.71;100405.44;4977606;28;45688;-79
2021/12/05 15:09:42;;;;;;;;;3.00;1.00;;;;;9.97;58.03;100451.81;4976424;28;45520;-80
2021/12/05 15:12:21;;;;;;;;;2.25;2.00;;;;;9.76;57.18;100429.41;4977923;28;45472;-80
2021/12/05 15:14:49;;;;;;;;;1.00;1.00;;;;;9.57;57.59;100419.25;4977700;28;45431;-81
2021/12/05 15:17:22;;;;;;;;;4.75;3.50;;;;;9.70;56.75;100450.09;4959639;28;45744;-79
2021/12/05 15:19:52;;;;;;;;;5.00;5.00;;;;;9.67;57.70;100446.50;4981831;28;45475;-79
2021/12/05 15:22:18;;;;;;;;;16.25;15.75;;;;;9.65;57.13;100454.28;4985540;28;45492;-81
2021/12/05 15:24:53;;;;;;;;;6.00;5.00;;;;;9.56;57.14;100428.78;4987386;28;45286;-81
2021/12/05 15:27:21;;;;;;;;;6.00;4.75;;;;;9.77;57.10;100451.19;4987487;28;45475;-77
2021/12/05 15:30:14;;;;;;;;;1.75;1.50;;;;;9.82;57.28;100451.34;4986396;28;45455;-77
2021/12/05 15:32:42;;;;;;;;;2.25;2.25;;;;;9.64;57.46;100423.81;4987550;28;45332;-77
2021/12/05 15:35:13;;;;;;;;;2.75;2.50;;;;;9.74;57.98;100438.03;4986944;28;45372;-77
2021/12/05 15:37:53;;;;;;;;;0.00;0.00;;;;;9.78;58.11;100471.22;4991011;28;45413;-77
2021/12/05 15:40:21;;;;;;;;;1.00;0.00;;;;;9.68;57.56;100469.16;4983832;28;45463;-77
2021/12/05 15:42:47;;;;;;;;;1.67;0.00;;;;;9.58;57.82;100475.78;4977368;28;45314;-77
2021/12/05 15:45:16;;;;;;;;;1.25;1.00;;;;;9.52;58.51;100489.50;4977601;28;45352;-77
2021/12/05 15:47:45;;;;;;;;;3.75;3.75;;;;;9.49;58.74;100465.03;4976929;28;45556;-77
2021/12/05 15:50:23;;;;;;;;;3.75;3.00;;;;;9.47;58.87;100459.81;4977304;28;45987;-76
2021/12/05 15:52:55;;;;;;;;;7.00;6.00;;;;;9.50;59.12;100472.03;4959309;28;45452;-77
2021/12/05 15:55:25;;;;;;;;;4.25;3.75;;;;;9.59;59.00;100474.06;4976008;28;45737;-77
2021/12/05 15:58:08;;;;;;;;;1.25;1.00;;;;;9.55;59.38;100460.06;4975186;28;45752;-79
2021/12/05 16:00:57;;;;;;;;;3.50;2.25;;;;;9.71;59.53;100491.00;4959001;28;45525;-80
2021/12/05 16:03:26;;;;;;;;;2.00;1.00;;;;;9.10;59.95;100390.78;4977031;28;45377;-79
2021/12/05 16:05:55;;;;;;;;;1.67;1.00;;;;;9.48;59.56;100477.19;4977256;28;45434;-80
2021/12/05 16:08:21;;;;;;;;;1.00;0.00;;;;;9.01;59.83;100419.13;4976988;28;46572;-80
2021/12/05 16:10:50;;;;;;;;;4.75;2.75;;;;;9.29;60.58;100511.31;4977944;28;45496;-81
2021/12/05 16:13:22;;;;;;;;;4.25;4.00;;;;;8.51;61.49;100408.72;4976896;28;45501;-78
2021/12/05 16:15:53;;;;;;;;;3.75;2.25;;;;;8.50;61.66;100442.53;4959419;28;45525;-80
2021/12/05 16:18:20;;;;;;;;;3.00;3.00;;;;;8.86;61.73;100515.88;4976292;28;45423;-82
2021/12/05 16:20:47;;;;;;;;;9.25;5.75;;;;;8.83;62.19;100517.50;4977478;28;45640;-81
2021/12/05 16:23:17;;;;;;;;;8.25;8.25;;;;;8.82;61.76;100497.50;4962316;28;45909;-74
2021/12/05 16:25:55;;;;;;;;;7.25;7.00;;;;;8.88;62.29;100527.25;4984290;28;45479;-79
2021/12/05 16:28:34;;;;;;;;;11.25;9.75;;;;;8.84;61.88;100530.56;4960456;28;46434;-77
2021/12/05 16:31:15;;;;;;;;;9.50;8.25;;;;;8.61;62.03;100514.09;4977977;28;45564;-78
2021/12/05 16:33:45;;;;;;;;;16.50;14.25;;;;;8.74;62.67;100558.00;4980388;28;45513;-80
2021/12/05 16:36:11;;;;;;;;;3.00;1.00;;;;;8.68;60.22;100552.56;4998281;28;45473;-81
2021/12/05 16:38:43;;;;;;;;;4.25;3.00;;;;;8.55;61.14;100516.47;4996443;28;46501;-79
2021/12/05 16:41:25;;;;;;;;;3.75;3.00;;;;;8.64;59.83;100523.75;4980334;28;45480;-77
2021/12/05 16:44:13;;;;;;;;;3.00;2.25;;;;;8.85;58.96;100552.28;4998695;28;45467;-82
2021/12/05 16:46:48;;;;;;;;;2.50;2.00;;;;;8.93;58.27;100563.88;4980824;28;45692;-83
2021/12/05 16:49:23;;;;;;;;;4.00;4.00;;;;;8.90;58.62;100554.25;4998344;28;45557;-77
2021/12/05 16:52:05;;;;;;;;;3.75;3.00;;;;;8.99;58.08;100558.91;4980321;28;45480;-77
2021/12/05 16:54:54;;;;;;;;;1.00;1.00;;;;;9.05;58.62;100564.34;4977963;28;45538;-76
2021/12/05 16:57:23;;;;;;;;;3.50;2.00;;;;;9.10;59.31;100572.34;4993612;28;45715;-77
2021/12/05 16:59:52;;;;;;;;;2.00;1.00;;;;;8.62;58.86;100497.66;4980224;28;46689;-78
2021/12/05 17:02:33;;;;;;;;;2.00;1.25;;;;;8.98;59.38;100566.69;4980512;28;45435;-83
2021/12/05 17:05:24;;;;;;;;;3.50;2.00;;;;;8.84;59.86;100543.59;4980546;28;45459;-76
2021/12/05 17:08:13;;;;;;;;;2.00;2.00;;;;;9.03;60.61;100571.25;4980457;28;45694;-78
2021/12/05 17:10:51;;;;;;;;;7.50;6.75;;;;;9.03;60.69;100575.53;4997548;28;45433;-79
2021/12/05 17:13:33;;;;;;;;;2.50;1.00;;;;;8.95;59.12;100572.66;4997827;28;45395;-76
2021/12/05 17:16:02;;;;;;;;;1.75;1.00;;;;;8.90;58.64;100579.41;4980269;28;45427;-75
2021/12/05 17:18:37;;;;;;;;;2.25;2.00;;;;;8.72;59.01;100558.78;4980115;28;45401;-78
2021/12/05 17:21:14;;;;;;;;;1.00;0.33;;;;;8.78;59.30;100595.47;4980339;28;46669;-77
2021/12/05 17:23:50;;;;;;;;;2.00;1.25;;;;;8.74;59.00;100588.38;4980116;28;45492;-78
2021/12/05 17:26:24;;;;;;;;;1.00;0.00;;;;;8.58;58.89;100573.00;4981107;28;45604;-77
2021/12/05 17:29:32;;;;;;;;;0.00;0.00;;;;;8.59;59.59;100585.19;4976846;28;45547;-77